sensor_id;sensor_type;location;lat;lon;timestamp;temperature;humidity
3380;DHT22;1703;51.964;7.642;2023-06-14T00:01:02;21.70;60.00
3380;DHT22;1703;51.964;7.642;2023-06-14T00:03:31;21.60;60.10
3380;DHT22;1703;51.964;7.642;2023-06-14T00:05:58;21.60;60.50
3380;DHT22;1703;51.964;7.642;2023-06-14T00:08:27;21.60;60.60
3380;DHT22;1703;51.964;7.642;2023-06-14T00:10:53;21.50;60.90
3380;DHT22;1703;51.964;7.642;2023-06-14T00:13:20;21.50;60.70
3380;DHT22;1703;51.964;7.642;2023-06-14T00:15:47;21.50;61.00
3380;DHT22;1703;51.964;7.642;2023-06-14T00:18:14;21.40;60.90
3380;DHT22;1703;51.964;7.642;2023-06-14T00:20:42;21.40;61.00
3380;DHT22;1703;51.964;7.642;2023-06-14T00:23:09;21.30;61.40
3380;DHT22;1703;51.964;7.642;2023-06-14T00:25:37;21.30;61.60
3380;DHT22;1703;51.964;7.642;2023-06-14T00:28:04;21.30;61.90
3380;DHT22;1703;51.964;7.642;2023-06-14T00:30:30;21.30;62.10
3380;DHT22;1703;51.964;7.642;2023-06-14T00:32:57;21.30;62.00
3380;DHT22;1703;51.964;7.642;2023-06-14T00:35:25;21.20;62.40
3380;DHT22;1703;51.964;7.642;2023-06-14T00:37:52;21.20;62.60
3380;DHT22;1703;51.964;7.642;2023-06-14T00:40:20;21.20;62.60
3380;DHT22;1703;51.964;7.642;2023-06-14T00:42:49;21.20;63.10
3380;DHT22;1703;51.964;7.642;2023-06-14T00:45:15;21.10;63.00
3380;DHT22;1703;51.964;7.642;2023-06-14T00:47:43;21.20;63.00
3380;DHT22;1703;51.964;7.642;2023-06-14T00:50:10;21.10;63.20
3380;DHT22;1703;51.964;7.642;2023-06-14T00:52:39;21.10;63.70
3380;DHT22;1703;51.964;7.642;2023-06-14T00:55:06;21.00;63.50
3380;DHT22;1703;51.964;7.642;2023-06-14T00:57:33;20.90;64.20
3380;DHT22;1703;51.964;7.642;2023-06-14T01:00:06;20.90;64.40
3380;DHT22;1703;51.964;7.642;2023-06-14T01:02:35;20.90;64.40
3380;DHT22;1703;51.964;7.642;2023-06-14T01:05:02;20.90;64.20
3380;DHT22;1703;51.964;7.642;2023-06-14T01:07:38;20.90;64.80
3380;DHT22;1703;51.964;7.642;2023-06-14T01:10:18;20.90;64.90
3380;DHT22;1703;51.964;7.642;2023-06-14T01:12:52;20.90;64.80
3380;DHT22;1703;51.964;7.642;2023-06-14T01:15:23;20.80;65.20
3380;DHT22;1703;51.964;7.642;2023-06-14T01:17:51;20.80;65.40
3380;DHT22;1703;51.964;7.642;2023-06-14T01:20:22;20.80;65.10
3380;DHT22;1703;51.964;7.642;2023-06-14T01:22:53;20.80;65.20
3380;DHT22;1703;51.964;7.642;2023-06-14T01:25:21;20.70;66.00
3380;DHT22;1703;51.964;7.642;2023-06-14T01:27:49;20.60;66.00
3380;DHT22;1703;51.964;7.642;2023-06-14T01:30:17;20.60;66.30
3380;DHT22;1703;51.964;7.642;2023-06-14T01:32:47;20.60;66.80
3380;DHT22;1703;51.964;7.642;2023-06-14T01:35:16;20.50;67.00
3380;DHT22;1703;51.964;7.642;2023-06-14T01:37:43;20.50;67.30
3380;DHT22;1703;51.964;7.642;2023-06-14T01:40:14;20.50;67.40
3380;DHT22;1703;51.964;7.642;2023-06-14T01:42:42;20.40;67.70
3380;DHT22;1703;51.964;7.642;2023-06-14T01:45:11;20.40;67.80
3380;DHT22;1703;51.964;7.642;2023-06-14T01:47:38;20.40;68.10
3380;DHT22;1703;51.964;7.642;2023-06-14T01:50:06;20.40;68.60
3380;DHT22;1703;51.964;7.642;2023-06-14T01:52:33;20.30;68.50
3380;DHT22;1703;51.964;7.642;2023-06-14T01:55:02;20.30;68.50
3380;DHT22;1703;51.964;7.642;2023-06-14T01:57:31;20.30;68.90
3380;DHT22;1703;51.964;7.642;2023-06-14T01:59:58;20.30;69.20
3380;DHT22;1703;51.964;7.642;2023-06-14T02:02:25;20.20;69.40
3380;DHT22;1703;51.964;7.642;2023-06-14T02:04:52;20.20;69.90
3380;DHT22;1703;51.964;7.642;2023-06-14T02:07:22;20.10;69.90
3380;DHT22;1703;51.964;7.642;2023-06-14T02:09:51;20.10;70.20
3380;DHT22;1703;51.964;7.642;2023-06-14T02:12:18;20.10;70.20
3380;DHT22;1703;51.964;7.642;2023-06-14T02:14:46;20.10;70.70
3380;DHT22;1703;51.964;7.642;2023-06-14T02:17:14;20.00;70.60
3380;DHT22;1703;51.964;7.642;2023-06-14T02:19:41;20.00;71.30
3380;DHT22;1703;51.964;7.642;2023-06-14T02:22:09;20.00;71.60
3380;DHT22;1703;51.964;7.642;2023-06-14T02:24:35;20.00;71.90
3380;DHT22;1703;51.964;7.642;2023-06-14T02:27:07;20.00;72.10
3380;DHT22;1703;51.964;7.642;2023-06-14T02:29:36;19.90;72.20
3380;DHT22;1703;51.964;7.642;2023-06-14T02:32:05;19.80;72.40
3380;DHT22;1703;51.964;7.642;2023-06-14T02:34:33;19.80;72.60
3380;DHT22;1703;51.964;7.642;2023-06-14T02:37:00;19.90;73.10
3380;DHT22;1703;51.964;7.642;2023-06-14T02:39:28;19.90;73.20
3380;DHT22;1703;51.964;7.642;2023-06-14T02:41:55;19.80;73.20
3380;DHT22;1703;51.964;7.642;2023-06-14T02:44:24;19.80;73.70
3380;DHT22;1703;51.964;7.642;2023-06-14T02:46:52;19.70;73.70
3380;DHT22;1703;51.964;7.642;2023-06-14T02:49:20;19.70;74.40
3380;DHT22;1703;51.964;7.642;2023-06-14T02:51:47;19.60;74.60
3380;DHT22;1703;51.964;7.642;2023-06-14T02:54:14;19.60;75.00
3380;DHT22;1703;51.964;7.642;2023-06-14T02:56:41;19.60;75.70
3380;DHT22;1703;51.964;7.642;2023-06-14T02:59:08;19.60;75.60
3380;DHT22;1703;51.964;7.642;2023-06-14T03:01:37;19.50;76.20
3380;DHT22;1703;51.964;7.642;2023-06-14T03:04:07;19.50;76.30
3380;DHT22;1703;51.964;7.642;2023-06-14T03:06:38;19.50;76.30
3380;DHT22;1703;51.964;7.642;2023-06-14T03:09:07;19.50;76.70
3380;DHT22;1703;51.964;7.642;2023-06-14T03:11:36;19.50;76.90
3380;DHT22;1703;51.964;7.642;2023-06-14T03:14:04;19.50;77.30
3380;DHT22;1703;51.964;7.642;2023-06-14T03:16:34;19.40;77.30
3380;DHT22;1703;51.964;7.642;2023-06-14T03:19:03;19.40;77.60
3380;DHT22;1703;51.964;7.642;2023-06-14T03:21:31;19.40;78.10
3380;DHT22;1703;51.964;7.642;2023-06-14T03:24:04;19.40;78.50
3380;DHT22;1703;51.964;7.642;2023-06-14T03:26:37;19.30;78.70
3380;DHT22;1703;51.964;7.642;2023-06-14T03:29:04;19.20;79.60
3380;DHT22;1703;51.964;7.642;2023-06-14T03:31:31;19.20;79.70
3380;DHT22;1703;51.964;7.642;2023-06-14T03:34:00;19.20;79.80
3380;DHT22;1703;51.964;7.642;2023-06-14T03:36:27;19.10;80.50
3380;DHT22;1703;51.964;7.642;2023-06-14T03:38:55;19.10;81.40
3380;DHT22;1703;51.964;7.642;2023-06-14T03:41:23;19.00;81.70
3380;DHT22;1703;51.964;7.642;2023-06-14T03:43:52;19.00;82.10
3380;DHT22;1703;51.964;7.642;2023-06-14T03:46:19;19.00;82.70
3380;DHT22;1703;51.964;7.642;2023-06-14T03:48:47;18.90;83.50
3380;DHT22;1703;51.964;7.642;2023-06-14T03:51:14;18.90;84.10
3380;DHT22;1703;51.964;7.642;2023-06-14T03:53:41;18.90;84.80
3380;DHT22;1703;51.964;7.642;2023-06-14T03:56:08;18.90;85.20
3380;DHT22;1703;51.964;7.642;2023-06-14T03:58:41;18.90;85.70
3380;DHT22;1703;51.964;7.642;2023-06-14T04:01:08;18.80;86.10
3380;DHT22;1703;51.964;7.642;2023-06-14T04:03:37;18.90;86.10
3380;DHT22;1703;51.964;7.642;2023-06-14T04:06:06;18.90;86.50
3380;DHT22;1703;51.964;7.642;2023-06-14T04:08:33;18.90;86.80
3380;DHT22;1703;51.964;7.642;2023-06-14T04:11:00;18.90;86.90
3380;DHT22;1703;51.964;7.642;2023-06-14T04:13:27;18.80;87.50
3380;DHT22;1703;51.964;7.642;2023-06-14T04:15:55;18.90;88.70
3380;DHT22;1703;51.964;7.642;2023-06-14T04:18:27;18.90;89.40
3380;DHT22;1703;51.964;7.642;2023-06-14T04:20:55;18.90;89.00
3380;DHT22;1703;51.964;7.642;2023-06-14T04:23:23;18.90;89.10
3380;DHT22;1703;51.964;7.642;2023-06-14T04:25:49;18.90;89.60
3380;DHT22;1703;51.964;7.642;2023-06-14T04:28:17;18.90;90.10
3380;DHT22;1703;51.964;7.642;2023-06-14T04:30:45;18.90;90.20
3380;DHT22;1703;51.964;7.642;2023-06-14T04:33:16;19.00;90.50
3380;DHT22;1703;51.964;7.642;2023-06-14T04:35:43;19.00;90.70
3380;DHT22;1703;51.964;7.642;2023-06-14T04:38:13;19.00;90.60
3380;DHT22;1703;51.964;7.642;2023-06-14T04:40:41;19.10;90.90
3380;DHT22;1703;51.964;7.642;2023-06-14T04:43:11;19.10;90.70
3380;DHT22;1703;51.964;7.642;2023-06-14T04:45:40;19.20;90.90
3380;DHT22;1703;51.964;7.642;2023-06-14T04:48:10;19.20;90.70
3380;DHT22;1703;51.964;7.642;2023-06-14T04:50:39;19.30;91.00
3380;DHT22;1703;51.964;7.642;2023-06-14T04:53:07;19.20;90.90
3380;DHT22;1703;51.964;7.642;2023-06-14T04:55:34;19.30;91.00
3380;DHT22;1703;51.964;7.642;2023-06-14T04:58:02;19.30;91.20
3380;DHT22;1703;51.964;7.642;2023-06-14T05:00:30;19.30;91.40
3380;DHT22;1703;51.964;7.642;2023-06-14T05:02:57;19.30;91.60
3380;DHT22;1703;51.964;7.642;2023-06-14T05:05:27;19.40;91.50
3380;DHT22;1703;51.964;7.642;2023-06-14T05:07:55;19.50;91.50
3380;DHT22;1703;51.964;7.642;2023-06-14T05:10:22;19.60;91.40
3380;DHT22;1703;51.964;7.642;2023-06-14T05:12:49;19.60;91.40
3380;DHT22;1703;51.964;7.642;2023-06-14T05:15:18;19.70;91.40
3380;DHT22;1703;51.964;7.642;2023-06-14T05:17:46;19.70;91.30
3380;DHT22;1703;51.964;7.642;2023-06-14T05:20:18;19.70;91.50
3380;DHT22;1703;51.964;7.642;2023-06-14T05:22:45;19.70;91.50
3380;DHT22;1703;51.964;7.642;2023-06-14T05:25:14;19.70;91.60
3380;DHT22;1703;51.964;7.642;2023-06-14T05:27:41;19.70;91.70
3380;DHT22;1703;51.964;7.642;2023-06-14T05:30:09;19.80;91.80
3380;DHT22;1703;51.964;7.642;2023-06-14T05:32:36;19.90;91.50
3380;DHT22;1703;51.964;7.642;2023-06-14T05:35:04;19.90;91.70
3380;DHT22;1703;51.964;7.642;2023-06-14T05:37:32;19.90;91.70
3380;DHT22;1703;51.964;7.642;2023-06-14T05:39:59;20.00;92.00
3380;DHT22;1703;51.964;7.642;2023-06-14T05:42:27;20.00;91.80
3380;DHT22;1703;51.964;7.642;2023-06-14T05:44:54;20.00;91.70
3380;DHT22;1703;51.964;7.642;2023-06-14T05:47:21;20.10;92.10
3380;DHT22;1703;51.964;7.642;2023-06-14T05:49:48;20.10;91.60
3380;DHT22;1703;51.964;7.642;2023-06-14T05:52:14;20.20;92.00
3380;DHT22;1703;51.964;7.642;2023-06-14T05:54:41;20.30;92.00
3380;DHT22;1703;51.964;7.642;2023-06-14T05:57:08;20.30;92.30
3380;DHT22;1703;51.964;7.642;2023-06-14T05:59:37;20.40;92.00
3380;DHT22;1703;51.964;7.642;2023-06-14T06:02:04;20.40;92.10
3380;DHT22;1703;51.964;7.642;2023-06-14T06:04:31;20.50;92.10
3380;DHT22;1703;51.964;7.642;2023-06-14T06:06:58;20.60;91.70
3380;DHT22;1703;51.964;7.642;2023-06-14T06:09:25;20.60;91.70
3380;DHT22;1703;51.964;7.642;2023-06-14T06:11:52;20.60;91.70
3380;DHT22;1703;51.964;7.642;2023-06-14T06:14:19;20.70;91.80
3380;DHT22;1703;51.964;7.642;2023-06-14T06:16:47;20.70;91.60
3380;DHT22;1703;51.964;7.642;2023-06-14T06:19:14;20.80;91.30
3380;DHT22;1703;51.964;7.642;2023-06-14T06:21:41;20.80;91.20
3380;DHT22;1703;51.964;7.642;2023-06-14T06:24:08;20.80;91.20
3380;DHT22;1703;51.964;7.642;2023-06-14T06:26:35;20.90;91.40
3380;DHT22;1703;51.964;7.642;2023-06-14T06:29:02;21.00;91.00
3380;DHT22;1703;51.964;7.642;2023-06-14T06:31:28;20.90;90.40
3380;DHT22;1703;51.964;7.642;2023-06-14T06:33:56;20.90;90.90
3380;DHT22;1703;51.964;7.642;2023-06-14T06:36:24;21.00;90.00
3380;DHT22;1703;51.964;7.642;2023-06-14T06:38:51;21.00;90.40
3380;DHT22;1703;51.964;7.642;2023-06-14T06:41:18;21.00;90.40
3380;DHT22;1703;51.964;7.642;2023-06-14T06:43:45;21.00;90.10
3380;DHT22;1703;51.964;7.642;2023-06-14T06:46:14;21.10;90.10
3380;DHT22;1703;51.964;7.642;2023-06-14T06:48:40;21.10;88.60
3380;DHT22;1703;51.964;7.642;2023-06-14T06:51:09;21.10;89.70
3380;DHT22;1703;51.964;7.642;2023-06-14T06:53:35;21.20;88.40
3380;DHT22;1703;51.964;7.642;2023-06-14T06:56:03;21.20;88.20
3380;DHT22;1703;51.964;7.642;2023-06-14T06:58:30;21.10;88.60
3380;DHT22;1703;51.964;7.642;2023-06-14T07:00:56;21.20;87.60
3380;DHT22;1703;51.964;7.642;2023-06-14T07:03:23;21.20;88.40
3380;DHT22;1703;51.964;7.642;2023-06-14T07:05:50;21.20;86.60
3380;DHT22;1703;51.964;7.642;2023-06-14T07:08:18;21.20;84.10
3380;DHT22;1703;51.964;7.642;2023-06-14T07:10:45;21.20;84.10
3380;DHT22;1703;51.964;7.642;2023-06-14T07:13:12;21.20;84.10
3380;DHT22;1703;51.964;7.642;2023-06-14T07:15:39;21.30;83.90
3380;DHT22;1703;51.964;7.642;2023-06-14T07:18:06;21.20;81.90
3380;DHT22;1703;51.964;7.642;2023-06-14T07:20:33;21.30;81.70
3380;DHT22;1703;51.964;7.642;2023-06-14T07:23:00;21.30;83.10
3380;DHT22;1703;51.964;7.642;2023-06-14T07:25:28;21.40;82.30
3380;DHT22;1703;51.964;7.642;2023-06-14T07:27:55;21.50;81.70
3380;DHT22;1703;51.964;7.642;2023-06-14T07:30:22;21.40;82.10
3380;DHT22;1703;51.964;7.642;2023-06-14T07:32:51;21.30;81.80
3380;DHT22;1703;51.964;7.642;2023-06-14T07:35:18;21.40;82.70
3380;DHT22;1703;51.964;7.642;2023-06-14T07:37:45;21.50;83.00
3380;DHT22;1703;51.964;7.642;2023-06-14T07:40:13;21.50;83.10
3380;DHT22;1703;51.964;7.642;2023-06-14T07:42:41;21.50;82.70
3380;DHT22;1703;51.964;7.642;2023-06-14T07:45:09;21.60;81.90
3380;DHT22;1703;51.964;7.642;2023-06-14T07:47:36;21.60;81.50
3380;DHT22;1703;51.964;7.642;2023-06-14T07:50:03;21.70;81.50
3380;DHT22;1703;51.964;7.642;2023-06-14T07:52:31;21.70;80.80
3380;DHT22;1703;51.964;7.642;2023-06-14T07:54:58;21.70;81.30
3380;DHT22;1703;51.964;7.642;2023-06-14T07:57:25;21.90;82.30
3380;DHT22;1703;51.964;7.642;2023-06-14T07:59:54;22.00;81.50
3380;DHT22;1703;51.964;7.642;2023-06-14T08:02:20;22.00;82.80
3380;DHT22;1703;51.964;7.642;2023-06-14T08:04:47;22.00;82.70
3380;DHT22;1703;51.964;7.642;2023-06-14T08:07:15;21.90;83.30
3380;DHT22;1703;51.964;7.642;2023-06-14T08:09:41;22.00;82.90
3380;DHT22;1703;51.964;7.642;2023-06-14T08:12:09;22.10;82.30
3380;DHT22;1703;51.964;7.642;2023-06-14T08:14:36;22.10;82.10
3380;DHT22;1703;51.964;7.642;2023-06-14T08:17:05;22.20;80.90
3380;DHT22;1703;51.964;7.642;2023-06-14T08:19:31;22.20;80.20
3380;DHT22;1703;51.964;7.642;2023-06-14T08:21:58;22.30;80.80
3380;DHT22;1703;51.964;7.642;2023-06-14T08:24:25;22.40;80.20
3380;DHT22;1703;51.964;7.642;2023-06-14T08:26:52;22.30;80.00
3380;DHT22;1703;51.964;7.642;2023-06-14T08:29:19;22.40;79.50
3380;DHT22;1703;51.964;7.642;2023-06-14T08:31:47;22.50;79.10
3380;DHT22;1703;51.964;7.642;2023-06-14T08:34:15;22.40;77.30
3380;DHT22;1703;51.964;7.642;2023-06-14T08:36:42;22.60;76.00
3380;DHT22;1703;51.964;7.642;2023-06-14T08:39:09;22.50;75.60
3380;DHT22;1703;51.964;7.642;2023-06-14T08:41:37;22.40;76.30
3380;DHT22;1703;51.964;7.642;2023-06-14T08:44:04;22.50;75.00
3380;DHT22;1703;51.964;7.642;2023-06-14T08:46:33;22.50;75.20
3380;DHT22;1703;51.964;7.642;2023-06-14T08:49:01;22.60;76.40
3380;DHT22;1703;51.964;7.642;2023-06-14T08:51:31;22.50;75.80
3380;DHT22;1703;51.964;7.642;2023-06-14T08:54:00;22.50;74.40
3380;DHT22;1703;51.964;7.642;2023-06-14T08:56:28;22.50;75.40
3380;DHT22;1703;51.964;7.642;2023-06-14T08:58:56;22.60;75.30
3380;DHT22;1703;51.964;7.642;2023-06-14T09:01:25;22.50;74.20
3380;DHT22;1703;51.964;7.642;2023-06-14T09:03:52;22.50;74.90
3380;DHT22;1703;51.964;7.642;2023-06-14T09:06:23;22.60;75.10
3380;DHT22;1703;51.964;7.642;2023-06-14T09:08:51;22.60;74.20
3380;DHT22;1703;51.964;7.642;2023-06-14T09:11:19;22.70;74.30
3380;DHT22;1703;51.964;7.642;2023-06-14T09:13:46;22.80;73.80
3380;DHT22;1703;51.964;7.642;2023-06-14T09:16:14;22.80;75.20
3380;DHT22;1703;51.964;7.642;2023-06-14T09:18:42;22.90;75.10
3380;DHT22;1703;51.964;7.642;2023-06-14T09:21:10;22.90;74.70
3380;DHT22;1703;51.964;7.642;2023-06-14T09:23:38;23.00;75.10
3380;DHT22;1703;51.964;7.642;2023-06-14T09:26:08;23.00;75.20
3380;DHT22;1703;51.964;7.642;2023-06-14T09:28:35;23.00;75.20
3380;DHT22;1703;51.964;7.642;2023-06-14T09:31:02;22.80;75.30
3380;DHT22;1703;51.964;7.642;2023-06-14T09:33:30;22.90;76.20
3380;DHT22;1703;51.964;7.642;2023-06-14T09:35:58;22.90;76.70
3380;DHT22;1703;51.964;7.642;2023-06-14T09:38:25;22.90;75.50
3380;DHT22;1703;51.964;7.642;2023-06-14T09:40:55;23.00;74.40
3380;DHT22;1703;51.964;7.642;2023-06-14T09:43:24;22.90;75.50
3380;DHT22;1703;51.964;7.642;2023-06-14T09:45:54;22.80;75.30
3380;DHT22;1703;51.964;7.642;2023-06-14T09:48:21;22.90;76.20
3380;DHT22;1703;51.964;7.642;2023-06-14T09:50:50;23.00;75.40
3380;DHT22;1703;51.964;7.642;2023-06-14T09:53:21;23.00;74.70
3380;DHT22;1703;51.964;7.642;2023-06-14T09:55:49;23.00;75.00
3380;DHT22;1703;51.964;7.642;2023-06-14T09:58:20;23.00;75.80
3380;DHT22;1703;51.964;7.642;2023-06-14T10:00:51;23.00;75.60
3380;DHT22;1703;51.964;7.642;2023-06-14T10:03:23;23.00;75.10
3380;DHT22;1703;51.964;7.642;2023-06-14T10:05:51;23.10;75.10
3380;DHT22;1703;51.964;7.642;2023-06-14T10:08:20;23.20;75.10
3380;DHT22;1703;51.964;7.642;2023-06-14T10:10:49;23.10;75.80
3380;DHT22;1703;51.964;7.642;2023-06-14T10:13:17;23.20;75.90
3380;DHT22;1703;51.964;7.642;2023-06-14T10:15:52;23.20;76.10
3380;DHT22;1703;51.964;7.642;2023-06-14T10:18:28;23.20;77.00
3380;DHT22;1703;51.964;7.642;2023-06-14T10:21:06;23.30;77.80
3380;DHT22;1703;51.964;7.642;2023-06-14T10:23:38;23.20;77.00
3380;DHT22;1703;51.964;7.642;2023-06-14T10:26:07;23.40;77.70
3380;DHT22;1703;51.964;7.642;2023-06-14T10:28:37;23.50;78.40
3380;DHT22;1703;51.964;7.642;2023-06-14T10:31:07;23.50;76.30
3380;DHT22;1703;51.964;7.642;2023-06-14T10:33:35;23.40;77.80
3380;DHT22;1703;51.964;7.642;2023-06-14T10:36:26;23.60;76.90
3380;DHT22;1703;51.964;7.642;2023-06-14T10:39:05;23.70;75.70
3380;DHT22;1703;51.964;7.642;2023-06-14T10:41:35;23.70;76.40
3380;DHT22;1703;51.964;7.642;2023-06-14T10:44:31;23.50;76.80
3380;DHT22;1703;51.964;7.642;2023-06-14T10:47:00;23.60;76.40
3380;DHT22;1703;51.964;7.642;2023-06-14T10:49:39;23.70;76.90
3380;DHT22;1703;51.964;7.642;2023-06-14T10:52:10;23.80;76.20
3380;DHT22;1703;51.964;7.642;2023-06-14T10:55:02;23.70;76.70
3380;DHT22;1703;51.964;7.642;2023-06-14T10:57:32;23.80;76.80
3380;DHT22;1703;51.964;7.642;2023-06-14T10:59:59;23.80;78.60
3380;DHT22;1703;51.964;7.642;2023-06-14T11:05:26;24.00;74.30
3380;DHT22;1703;51.964;7.642;2023-06-14T11:08:04;24.00;75.10
3380;DHT22;1703;51.964;7.642;2023-06-14T11:10:40;24.10;74.80
3380;DHT22;1703;51.964;7.642;2023-06-14T11:13:08;24.00;74.80
3380;DHT22;1703;51.964;7.642;2023-06-14T11:15:36;24.10;75.90
3380;DHT22;1703;51.964;7.642;2023-06-14T11:18:05;24.20;76.00
3380;DHT22;1703;51.964;7.642;2023-06-14T11:20:33;24.10;75.40
3380;DHT22;1703;51.964;7.642;2023-06-14T11:23:01;24.10;75.30
3380;DHT22;1703;51.964;7.642;2023-06-14T11:25:28;24.10;74.80
3380;DHT22;1703;51.964;7.642;2023-06-14T11:27:55;24.20;74.60
3380;DHT22;1703;51.964;7.642;2023-06-14T11:30:23;24.30;74.10
3380;DHT22;1703;51.964;7.642;2023-06-14T11:32:52;24.20;74.70
3380;DHT22;1703;51.964;7.642;2023-06-14T11:35:22;24.30;75.20
3380;DHT22;1703;51.964;7.642;2023-06-14T11:37:52;24.40;75.10
3380;DHT22;1703;51.964;7.642;2023-06-14T11:40:19;24.50;75.40
3380;DHT22;1703;51.964;7.642;2023-06-14T11:42:46;24.50;75.30
3380;DHT22;1703;51.964;7.642;2023-06-14T11:45:13;24.50;72.90
3380;DHT22;1703;51.964;7.642;2023-06-14T11:47:40;24.60;74.50
3380;DHT22;1703;51.964;7.642;2023-06-14T11:50:08;24.70;74.20
3380;DHT22;1703;51.964;7.642;2023-06-14T11:52:36;24.70;73.90
3380;DHT22;1703;51.964;7.642;2023-06-14T11:55:05;24.70;73.30
3380;DHT22;1703;51.964;7.642;2023-06-14T11:57:34;24.80;72.60
3380;DHT22;1703;51.964;7.642;2023-06-14T12:00:03;24.90;71.60
3380;DHT22;1703;51.964;7.642;2023-06-14T12:02:37;24.80;71.90
3380;DHT22;1703;51.964;7.642;2023-06-14T12:05:06;24.80;72.70
3380;DHT22;1703;51.964;7.642;2023-06-14T12:07:37;24.90;71.90
3380;DHT22;1703;51.964;7.642;2023-06-14T12:10:06;25.00;72.20
3380;DHT22;1703;51.964;7.642;2023-06-14T12:12:36;25.00;72.90
3380;DHT22;1703;51.964;7.642;2023-06-14T12:15:04;25.10;72.40
3380;DHT22;1703;51.964;7.642;2023-06-14T12:17:32;25.10;72.40
3380;DHT22;1703;51.964;7.642;2023-06-14T12:20:05;25.20;71.80
3380;DHT22;1703;51.964;7.642;2023-06-14T12:22:38;25.30;73.00
3380;DHT22;1703;51.964;7.642;2023-06-14T12:25:04;25.30;70.70
3380;DHT22;1703;51.964;7.642;2023-06-14T12:27:31;25.30;72.00
3380;DHT22;1703;51.964;7.642;2023-06-14T12:29:59;25.30;70.60
3380;DHT22;1703;51.964;7.642;2023-06-14T12:32:26;25.30;71.50
3380;DHT22;1703;51.964;7.642;2023-06-14T12:34:53;25.30;70.60
3380;DHT22;1703;51.964;7.642;2023-06-14T12:37:20;25.40;71.10
3380;DHT22;1703;51.964;7.642;2023-06-14T12:39:48;25.30;69.00
3380;DHT22;1703;51.964;7.642;2023-06-14T12:42:16;25.40;69.50
3380;DHT22;1703;51.964;7.642;2023-06-14T12:44:44;25.40;69.20
3380;DHT22;1703;51.964;7.642;2023-06-14T12:47:10;25.30;70.50
3380;DHT22;1703;51.964;7.642;2023-06-14T12:49:39;25.40;69.20
3380;DHT22;1703;51.964;7.642;2023-06-14T12:52:07;25.40;69.30
3380;DHT22;1703;51.964;7.642;2023-06-14T12:54:34;25.40;69.90
3380;DHT22;1703;51.964;7.642;2023-06-14T12:57:03;25.50;70.40
3380;DHT22;1703;51.964;7.642;2023-06-14T12:59:30;25.60;68.60
3380;DHT22;1703;51.964;7.642;2023-06-14T13:02:09;25.50;67.80
3380;DHT22;1703;51.964;7.642;2023-06-14T13:04:36;25.60;69.30
3380;DHT22;1703;51.964;7.642;2023-06-14T13:07:04;25.60;69.30
3380;DHT22;1703;51.964;7.642;2023-06-14T13:09:31;25.70;69.20
3380;DHT22;1703;51.964;7.642;2023-06-14T13:11:58;25.90;68.00
3380;DHT22;1703;51.964;7.642;2023-06-14T13:14:26;25.90;66.90
3380;DHT22;1703;51.964;7.642;2023-06-14T13:16:53;26.00;67.00
3380;DHT22;1703;51.964;7.642;2023-06-14T13:19:20;26.10;69.30
3380;DHT22;1703;51.964;7.642;2023-06-14T13:21:47;26.60;71.50
3380;DHT22;1703;51.964;7.642;2023-06-14T13:24:15;27.50;66.90
3380;DHT22;1703;51.964;7.642;2023-06-14T13:26:42;28.40;63.90
3380;DHT22;1703;51.964;7.642;2023-06-14T13:29:09;29.00;64.10
3380;DHT22;1703;51.964;7.642;2023-06-14T13:31:37;30.40;60.20
3380;DHT22;1703;51.964;7.642;2023-06-14T13:34:04;31.40;58.60
3380;DHT22;1703;51.964;7.642;2023-06-14T13:36:31;32.80;55.20
3380;DHT22;1703;51.964;7.642;2023-06-14T13:38:58;33.70;52.70
3380;DHT22;1703;51.964;7.642;2023-06-14T13:41:27;34.30;53.00
3380;DHT22;1703;51.964;7.642;2023-06-14T13:43:57;35.20;49.80
3380;DHT22;1703;51.964;7.642;2023-06-14T13:46:24;36.10;48.00
3380;DHT22;1703;51.964;7.642;2023-06-14T13:48:53;36.50;46.00
3380;DHT22;1703;51.964;7.642;2023-06-14T13:51:19;37.00;45.30
3380;DHT22;1703;51.964;7.642;2023-06-14T13:53:47;37.30;43.10
3380;DHT22;1703;51.964;7.642;2023-06-14T13:56:14;37.60;42.50
3380;DHT22;1703;51.964;7.642;2023-06-14T13:58:41;38.00;41.80
3380;DHT22;1703;51.964;7.642;2023-06-14T14:01:09;38.30;40.70
3380;DHT22;1703;51.964;7.642;2023-06-14T14:03:37;38.90;40.40
3380;DHT22;1703;51.964;7.642;2023-06-14T14:06:05;39.60;39.30
3380;DHT22;1703;51.964;7.642;2023-06-14T14:08:32;39.40;38.60
3380;DHT22;1703;51.964;7.642;2023-06-14T14:10:59;39.30;38.90
3380;DHT22;1703;51.964;7.642;2023-06-14T14:13:26;38.30;39.00
3380;DHT22;1703;51.964;7.642;2023-06-14T14:15:53;37.10;39.20
3380;DHT22;1703;51.964;7.642;2023-06-14T14:18:20;35.80;40.00
3380;DHT22;1703;51.964;7.642;2023-06-14T14:20:47;34.30;41.30
3380;DHT22;1703;51.964;7.642;2023-06-14T14:23:15;33.00;43.00
3380;DHT22;1703;51.964;7.642;2023-06-14T14:25:42;32.40;44.50
3380;DHT22;1703;51.964;7.642;2023-06-14T14:28:09;31.50;46.00
3380;DHT22;1703;51.964;7.642;2023-06-14T14:30:36;30.60;47.20
3380;DHT22;1703;51.964;7.642;2023-06-14T14:33:05;30.20;48.10
3380;DHT22;1703;51.964;7.642;2023-06-14T14:38:00;29.30;49.80
3380;DHT22;1703;51.964;7.642;2023-06-14T14:40:30;29.00;50.40
3380;DHT22;1703;51.964;7.642;2023-06-14T14:42:57;28.70;50.10
3380;DHT22;1703;51.964;7.642;2023-06-14T14:45:24;28.50;50.60
3380;DHT22;1703;51.964;7.642;2023-06-14T14:47:50;28.10;51.10
3380;DHT22;1703;51.964;7.642;2023-06-14T14:50:17;27.70;52.10
3380;DHT22;1703;51.964;7.642;2023-06-14T14:52:44;27.60;52.80
3380;DHT22;1703;51.964;7.642;2023-06-14T14:55:11;27.50;53.30
3380;DHT22;1703;51.964;7.642;2023-06-14T14:57:40;27.40;53.70
3380;DHT22;1703;51.964;7.642;2023-06-14T15:00:07;27.20;54.20
3380;DHT22;1703;51.964;7.642;2023-06-14T15:02:35;27.20;54.10
3380;DHT22;1703;51.964;7.642;2023-06-14T15:05:02;27.10;54.60
3380;DHT22;1703;51.964;7.642;2023-06-14T15:07:30;27.50;54.70
3380;DHT22;1703;51.964;7.642;2023-06-14T15:09:59;27.90;54.10
3380;DHT22;1703;51.964;7.642;2023-06-14T15:12:26;27.80;53.60
3380;DHT22;1703;51.964;7.642;2023-06-14T15:14:54;27.60;54.00
3380;DHT22;1703;51.964;7.642;2023-06-14T15:17:21;27.50;54.70
3380;DHT22;1703;51.964;7.642;2023-06-14T15:19:49;27.20;54.80
3380;DHT22;1703;51.964;7.642;2023-06-14T15:22:16;26.90;55.10
3380;DHT22;1703;51.964;7.642;2023-06-14T15:24:43;26.70;55.60
3380;DHT22;1703;51.964;7.642;2023-06-14T15:27:11;26.70;55.20
3380;DHT22;1703;51.964;7.642;2023-06-14T15:29:39;26.70;55.70
3380;DHT22;1703;51.964;7.642;2023-06-14T15:32:08;26.70;55.80
3380;DHT22;1703;51.964;7.642;2023-06-14T15:34:35;26.80;56.20
3380;DHT22;1703;51.964;7.642;2023-06-14T15:37:03;26.80;56.20
3380;DHT22;1703;51.964;7.642;2023-06-14T15:39:30;26.60;56.60
3380;DHT22;1703;51.964;7.642;2023-06-14T15:41:58;26.50;57.20
3380;DHT22;1703;51.964;7.642;2023-06-14T15:44:25;26.40;57.10
3380;DHT22;1703;51.964;7.642;2023-06-14T15:46:52;26.50;57.20
3380;DHT22;1703;51.964;7.642;2023-06-14T15:49:21;26.50;57.40
3380;DHT22;1703;51.964;7.642;2023-06-14T15:51:47;26.60;57.60
3380;DHT22;1703;51.964;7.642;2023-06-14T15:54:14;26.50;57.60
3380;DHT22;1703;51.964;7.642;2023-06-14T15:56:41;26.50;57.70
3380;DHT22;1703;51.964;7.642;2023-06-14T15:59:08;26.40;58.10
3380;DHT22;1703;51.964;7.642;2023-06-14T16:01:35;26.30;58.50
3380;DHT22;1703;51.964;7.642;2023-06-14T16:04:04;26.20;58.40
3380;DHT22;1703;51.964;7.642;2023-06-14T16:06:33;26.00;59.00
3380;DHT22;1703;51.964;7.642;2023-06-14T16:09:01;25.90;58.90
3380;DHT22;1703;51.964;7.642;2023-06-14T16:11:29;26.00;59.00
3380;DHT22;1703;51.964;7.642;2023-06-14T16:13:59;26.10;58.70